sensor_id;sensor_type;location;lat;lon;timestamp;pressure;altitude;pressure_sealevel;temperature;humidity
8069;BME280;4077;43.702;24.896;2024-01-11T00:00:36;51605.38;;;-145.38;100.00
8069;BME280;4077;43.702;24.896;2024-01-11T00:03:02;51613.19;;;-145.38;100.00
8069;BME280;4077;43.702;24.896;2024-01-11T00:05:28;51599.53;;;-145.38;100.00
8069;BME280;4077;43.702;24.896;2024-01-11T00:07:53;51615.16;;;-145.38;100.00
8069;BME280;4077;43.702;24.896;2024-01-11T00:10:19;51611.25;;;-145.38;100.00
8069;BME280;4077;43.702;24.896;2024-01-11T00:12:45;51646.38;;;-145.38;100.00
8069;BME280;4077;43.702;24.896;2024-01-11T00:15:10;51624.91;;;-145.38;100.00
8069;BME280;4077;43.702;24.896;2024-01-11T00:17:36;51587.81;;;-145.38;100.00
8069;BME280;4077;43.702;24.896;2024-01-11T00:20:01;51597.56;;;-145.38;100.00
8069;BME280;4077;43.702;24.896;2024-01-11T00:22:27;51624.91;;;-145.38;100.00
8069;BME280;4077;43.702;24.896;2024-01-11T00:24:52;51587.81;;;-145.38;100.00
8069;BME280;4077;43.702;24.896;2024-01-11T00:27:18;51611.25;;;-145.38;100.00
8069;BME280;4077;43.702;24.896;2024-01-11T00:29:43;51605.38;;;-145.38;100.00
8069;BME280;4077;43.702;24.896;2024-01-11T00:32:09;51615.16;;;-145.38;100.00
8069;BME280;4077;43.702;24.896;2024-01-11T00:34:35;51576.09;;;-145.38;100.00
8069;BME280;4077;43.702;24.896;2024-01-11T00:37:01;51595.63;;;-145.38;100.00
8069;BME280;4077;43.702;24.896;2024-01-11T00:39:26;51540.97;;;-145.38;100.00
8069;BME280;4077;43.702;24.896;2024-01-11T00:41:52;51589.75;;;-145.38;100.00
8069;BME280;4077;43.702;24.896;2024-01-11T00:44:17;51570.25;;;-145.38;100.00
8069;BME280;4077;43.702;24.896;2024-01-11T00:46:43;51617.09;;;-145.38;100.00
8069;BME280;4077;43.702;24.896;2024-01-11T00:49:08;51626.84;;;-145.38;100.00
8069;BME280;4077;43.702;24.896;2024-01-11T00:51:33;51587.81;;;-145.38;100.00
8069;BME280;4077;43.702;24.896;2024-01-11T00:53:59;51562.44;;;-145.38;100.00
8069;BME280;4077;43.702;24.896;2024-01-11T00:56:24;51599.53;;;-145.38;100.00
8069;BME280;4077;43.702;24.896;2024-01-11T00:58:50;51624.91;;;-145.38;100.00
8069;BME280;4077;43.702;24.896;2024-01-11T01:01:16;51599.53;;;-145.38;100.00
8069;BME280;4077;43.702;24.896;2024-01-11T01:03:42;51593.66;;;-145.38;100.00
8069;BME280;4077;43.702;24.896;2024-01-11T01:06:07;51619.03;;;-145.38;100.00
8069;BME280;4077;43.702;24.896;2024-01-11T01:08:33;51605.38;;;-145.38;100.00
8069;BME280;4077;43.702;24.896;2024-01-11T01:10:58;51581.97;;;-145.38;100.00
8069;BME280;4077;43.702;24.896;2024-01-11T01:13:24;51613.19;;;-145.38;100.00
8069;BME280;4077;43.702;24.896;2024-01-11T01:15:49;51580.00;;;-145.38;100.00
8069;BME280;4077;43.702;24.896;2024-01-11T01:18:14;51572.19;;;-145.38;100.00
8069;BME280;4077;43.702;24.896;2024-01-11T01:20:40;51595.63;;;-145.38;100.00
8069;BME280;4077;43.702;24.896;2024-01-11T01:23:05;51572.19;;;-145.38;100.00
8069;BME280;4077;43.702;24.896;2024-01-11T01:25:31;51601.47;;;-145.38;100.00
8069;BME280;4077;43.702;24.896;2024-01-11T01:27:58;51603.44;;;-145.38;100.00
8069;BME280;4077;43.702;24.896;2024-01-11T01:30:24;51603.44;;;-145.38;100.00
8069;BME280;4077;43.702;24.896;2024-01-11T01:32:50;51587.81;;;-145.38;100.00
8069;BME280;4077;43.702;24.896;2024-01-11T01:35:15;51548.78;;;-145.38;100.00
8069;BME280;4077;43.702;24.896;2024-01-11T01:37:41;51572.19;;;-145.38;100.00
8069;BME280;4077;43.702;24.896;2024-01-11T01:40:08;51587.81;;;-145.38;100.00
8069;BME280;4077;43.702;24.896;2024-01-11T01:42:34;51564.38;;;-145.38;100.00
8069;BME280;4077;43.702;24.896;2024-01-11T01:44:59;51630.75;;;-145.38;100.00
8069;BME280;4077;43.702;24.896;2024-01-11T01:47:26;51605.38;;;-145.38;100.00
8069;BME280;4077;43.702;24.896;2024-01-11T01:49:52;51611.25;;;-145.38;100.00
8069;BME280;4077;43.702;24.896;2024-01-11T01:52:19;51640.53;;;-145.38;100.00
8069;BME280;4077;43.702;24.896;2024-01-11T01:54:45;51578.06;;;-145.38;100.00
8069;BME280;4077;43.702;24.896;2024-01-11T01:57:13;51613.19;;;-145.38;100.00
8069;BME280;4077;43.702;24.896;2024-01-11T01:59:41;51593.66;;;-145.38;100.00
8069;BME280;4077;43.702;24.896;2024-01-11T02:02:08;51558.53;;;-145.38;100.00
8069;BME280;4077;43.702;24.896;2024-01-11T02:04:34;51619.03;;;-145.38;100.00
8069;BME280;4077;43.702;24.896;2024-01-11T02:07:01;51585.84;;;-145.38;100.00
8069;BME280;4077;43.702;24.896;2024-01-11T02:09:28;51615.16;;;-145.38;100.00
8069;BME280;4077;43.702;24.896;2024-01-11T02:11:54;51603.44;;;-145.38;100.00
8069;BME280;4077;43.702;24.896;2024-01-11T02:14:20;51599.53;;;-145.38;100.00
8069;BME280;4077;43.702;24.896;2024-01-11T02:16:45;51607.34;;;-145.38;100.00
8069;BME280;4077;43.702;24.896;2024-01-11T02:19:15;51609.28;;;-145.38;100.00
8069;BME280;4077;43.702;24.896;2024-01-11T02:21:43;51560.47;;;-145.38;100.00
8069;BME280;4077;43.702;24.896;2024-01-11T02:24:09;51591.72;;;-145.38;100.00
8069;BME280;4077;43.702;24.896;2024-01-11T02:26:35;51578.06;;;-145.38;100.00
8069;BME280;4077;43.702;24.896;2024-01-11T02:29:01;51611.25;;;-145.38;100.00
8069;BME280;4077;43.702;24.896;2024-01-11T02:31:27;51597.56;;;-145.38;100.00
8069;BME280;4077;43.702;24.896;2024-01-11T02:33:53;51619.03;;;-145.38;100.00
8069;BME280;4077;43.702;24.896;2024-01-11T02:36:20;51583.91;;;-145.38;100.00
8069;BME280;4077;43.702;24.896;2024-01-11T02:38:46;51607.34;;;-145.38;100.00
8069;BME280;4077;43.702;24.896;2024-01-11T02:41:14;51560.47;;;-145.38;100.00
8069;BME280;4077;43.702;24.896;2024-01-11T02:43:46;51591.72;;;-145.38;100.00
8069;BME280;4077;43.702;24.896;2024-01-11T02:46:12;51609.28;;;-145.38;100.00
8069;BME280;4077;43.702;24.896;2024-01-11T02:48:37;51560.47;;;-145.38;100.00
8069;BME280;4077;43.702;24.896;2024-01-11T02:51:03;51607.34;;;-145.38;100.00
8069;BME280;4077;43.702;24.896;2024-01-11T02:53:28;51587.81;;;-145.38;100.00
8069;BME280;4077;43.702;24.896;2024-01-11T02:55:59;51634.66;;;-145.38;100.00
8069;BME280;4077;43.702;24.896;2024-01-11T02:58:24;51591.72;;;-145.38;100.00
8069;BME280;4077;43.702;24.896;2024-01-11T03:00:50;51595.63;;;-145.38;100.00
8069;BME280;4077;43.702;24.896;2024-01-11T03:03:15;51638.56;;;-145.38;100.00
8069;BME280;4077;43.702;24.896;2024-01-11T03:05:41;51593.66;;;-145.38;100.00
8069;BME280;4077;43.702;24.896;2024-01-11T03:08:06;51560.47;;;-145.38;100.00
8069;BME280;4077;43.702;24.896;2024-01-11T03:10:32;51607.34;;;-145.38;100.00
8069;BME280;4077;43.702;24.896;2024-01-11T03:12:57;51572.19;;;-145.38;100.00
8069;BME280;4077;43.702;24.896;2024-01-11T03:15:23;51611.25;;;-145.38;100.00
8069;BME280;4077;43.702;24.896;2024-01-11T03:17:48;51605.38;;;-145.38;100.00
8069;BME280;4077;43.702;24.896;2024-01-11T03:20:15;51548.78;;;-145.38;100.00
8069;BME280;4077;43.702;24.896;2024-01-11T03:22:47;51585.84;;;-145.38;100.00
8069;BME280;4077;43.702;24.896;2024-01-11T03:25:12;51634.66;;;-145.38;100.00
8069;BME280;4077;43.702;24.896;2024-01-11T03:27:38;51636.63;;;-145.38;100.00
8069;BME280;4077;43.702;24.896;2024-01-11T03:30:03;51597.56;;;-145.38;100.00
8069;BME280;4077;43.702;24.896;2024-01-11T03:32:29;51564.38;;;-145.38;100.00
8069;BME280;4077;43.702;24.896;2024-01-11T03:34:55;51556.56;;;-145.38;100.00
8069;BME280;4077;43.702;24.896;2024-01-11T03:37:20;51564.38;;;-145.38;100.00
8069;BME280;4077;43.702;24.896;2024-01-11T03:39:46;51591.72;;;-145.38;100.00
8069;BME280;4077;43.702;24.896;2024-01-11T03:42:11;51595.63;;;-145.38;100.00
8069;BME280;4077;43.702;24.896;2024-01-11T03:44:37;51626.84;;;-145.38;100.00
8069;BME280;4077;43.702;24.896;2024-01-11T03:47:03;51615.16;;;-145.38;100.00
8069;BME280;4077;43.702;24.896;2024-01-11T03:49:28;51646.38;;;-145.38;100.00
8069;BME280;4077;43.702;24.896;2024-01-11T03:51:54;51601.47;;;-145.38;100.00
8069;BME280;4077;43.702;24.896;2024-01-11T03:54:19;51589.75;;;-145.38;100.00
8069;BME280;4077;43.702;24.896;2024-01-11T03:56:45;51622.94;;;-145.38;100.00
8069;BME280;4077;43.702;24.896;2024-01-11T03:59:10;51603.44;;;-145.38;100.00
8069;BME280;4077;43.702;24.896;2024-01-11T04:01:40;51558.53;;;-145.38;100.00
8069;BME280;4077;43.702;24.896;2024-01-11T04:04:05;51587.81;;;-145.38;100.00
8069;BME280;4077;43.702;24.896;2024-01-11T04:06:31;51587.81;;;-145.38;100.00
8069;BME280;4077;43.702;24.896;2024-01-11T04:08:56;51611.25;;;-145.38;100.00
8069;BME280;4077;43.702;24.896;2024-01-11T04:11:22;51599.53;;;-145.38;100.00
8069;BME280;4077;43.702;24.896;2024-01-11T04:13:47;51619.03;;;-145.38;100.00
8069;BME280;4077;43.702;24.896;2024-01-11T04:16:13;51615.16;;;-145.38;100.00
8069;BME280;4077;43.702;24.896;2024-01-11T04:18:38;51609.28;;;-145.38;100.00
8069;BME280;4077;43.702;24.896;2024-01-11T04:21:04;51640.53;;;-145.38;100.00
8069;BME280;4077;43.702;24.896;2024-01-11T04:23:30;51591.72;;;-145.38;100.00
8069;BME280;4077;43.702;24.896;2024-01-11T04:25:55;51570.25;;;-145.38;100.00
8069;BME280;4077;43.702;24.896;2024-01-11T04:28:20;51583.91;;;-145.38;100.00
8069;BME280;4077;43.702;24.896;2024-01-11T04:30:46;51603.44;;;-145.38;100.00
8069;BME280;4077;43.702;24.896;2024-01-11T04:33:11;51603.44;;;-145.38;100.00
8069;BME280;4077;43.702;24.896;2024-01-11T04:35:37;51556.56;;;-145.38;100.00
8069;BME280;4077;43.702;24.896;2024-01-11T04:38:02;51587.81;;;-145.38;100.00
8069;BME280;4077;43.702;24.896;2024-01-11T04:40:28;51619.03;;;-145.38;100.00
8069;BME280;4077;43.702;24.896;2024-01-11T04:42:53;51605.38;;;-145.38;100.00
8069;BME280;4077;43.702;24.896;2024-01-11T04:45:19;51595.63;;;-145.38;100.00
8069;BME280;4077;43.702;24.896;2024-01-11T04:47:44;51605.38;;;-145.38;100.00
8069;BME280;4077;43.702;24.896;2024-01-11T04:50:10;51622.94;;;-145.38;100.00
8069;BME280;4077;43.702;24.896;2024-01-11T04:52:36;51581.97;;;-145.38;100.00
8069;BME280;4077;43.702;24.896;2024-01-11T04:55:01;51597.56;;;-145.38;100.00
8069;BME280;4077;43.702;24.896;2024-01-11T04:57:27;51574.16;;;-145.38;100.00
8069;BME280;4077;43.702;24.896;2024-01-11T04:59:52;51591.72;;;-145.38;100.00
8069;BME280;4077;43.702;24.896;2024-01-11T05:02:20;51597.56;;;-145.38;100.00
8069;BME280;4077;43.702;24.896;2024-01-11T05:04:46;51630.75;;;-145.38;100.00
8069;BME280;4077;43.702;24.896;2024-01-11T05:07:11;51599.53;;;-145.38;100.00
8069;BME280;4077;43.702;24.896;2024-01-11T05:09:37;51572.19;;;-145.38;100.00
8069;BME280;4077;43.702;24.896;2024-01-11T05:12:02;51554.63;;;-145.38;100.00
8069;BME280;4077;43.702;24.896;2024-01-11T05:14:28;51630.75;;;-145.38;100.00
8069;BME280;4077;43.702;24.896;2024-01-11T05:16:53;51583.91;;;-145.38;100.00
8069;BME280;4077;43.702;24.896;2024-01-11T05:19:19;51609.28;;;-145.38;100.00
8069;BME280;4077;43.702;24.896;2024-01-11T05:21:44;51595.63;;;-145.38;100.00
8069;BME280;4077;43.702;24.896;2024-01-11T05:24:10;51591.72;;;-145.38;100.00
8069;BME280;4077;43.702;24.896;2024-01-11T05:26:35;51583.91;;;-145.38;100.00
8069;BME280;4077;43.702;24.896;2024-01-11T05:29:01;51568.28;;;-145.38;100.00
8069;BME280;4077;43.702;24.896;2024-01-11T05:31:29;51580.00;;;-145.38;100.00
8069;BME280;4077;43.702;24.896;2024-01-11T05:33:54;51581.97;;;-145.38;100.00
8069;BME280;4077;43.702;24.896;2024-01-11T05:36:20;51587.81;;;-145.38;100.00
8069;BME280;4077;43.702;24.896;2024-01-11T05:38:47;51576.09;;;-145.38;100.00
8069;BME280;4077;43.702;24.896;2024-01-11T05:41:12;51580.00;;;-145.38;100.00
8069;BME280;4077;43.702;24.896;2024-01-11T05:43:38;51576.09;;;-145.38;100.00
8069;BME280;4077;43.702;24.896;2024-01-11T05:46:07;51585.84;;;-145.38;100.00
8069;BME280;4077;43.702;24.896;2024-01-11T05:48:33;51615.16;;;-145.38;100.00
8069;BME280;4077;43.702;24.896;2024-01-11T05:50:58;51607.34;;;-145.38;100.00
8069;BME280;4077;43.702;24.896;2024-01-11T05:53:25;51580.00;;;-145.38;100.00
8069;BME280;4077;43.702;24.896;2024-01-11T05:55:52;51595.63;;;-145.38;100.00
8069;BME280;4077;43.702;24.896;2024-01-11T05:58:18;51572.19;;;-145.38;100.00
8069;BME280;4077;43.702;24.896;2024-01-11T06:00:43;51605.38;;;-145.38;100.00
8069;BME280;4077;43.702;24.896;2024-01-11T06:03:12;51599.53;;;-145.38;100.00
8069;BME280;4077;43.702;24.896;2024-01-11T06:05:37;51603.44;;;-145.38;100.00
8069;BME280;4077;43.702;24.896;2024-01-11T06:08:03;51578.06;;;-145.38;100.00
8069;BME280;4077;43.702;24.896;2024-01-11T06:10:29;51603.44;;;-145.38;100.00
8069;BME280;4077;43.702;24.896;2024-01-11T06:12:56;51609.28;;;-145.38;100.00
8069;BME280;4077;43.702;24.896;2024-01-11T06:15:21;51619.03;;;-145.38;100.00
8069;BME280;4077;43.702;24.896;2024-01-11T06:17:47;51574.16;;;-145.38;100.00
8069;BME280;4077;43.702;24.896;2024-01-11T06:20:12;51568.28;;;-145.38;100.00
8069;BME280;4077;43.702;24.896;2024-01-11T06:22:38;51587.81;;;-145.38;100.00
8069;BME280;4077;43.702;24.896;2024-01-11T06:25:03;51615.16;;;-145.38;100.00
8069;BME280;4077;43.702;24.896;2024-01-11T06:27:29;51593.66;;;-145.38;100.00
8069;BME280;4077;43.702;24.896;2024-01-11T06:29:54;51607.34;;;-145.38;100.00
8069;BME280;4077;43.702;24.896;2024-01-11T06:32:20;51611.25;;;-145.38;100.00
8069;BME280;4077;43.702;24.896;2024-01-11T06:34:45;51548.78;;;-145.38;100.00
8069;BME280;4077;43.702;24.896;2024-01-11T06:37:12;51568.28;;;-145.38;100.00
8069;BME280;4077;43.702;24.896;2024-01-11T06:39:38;51583.91;;;-145.38;100.00
8069;BME280;4077;43.702;24.896;2024-01-11T06:42:04;51585.84;;;-145.38;100.00
8069;BME280;4077;43.702;24.896;2024-01-11T06:44:29;51646.38;;;-145.38;100.00
8069;BME280;4077;43.702;24.896;2024-01-11T06:46:56;51558.53;;;-145.38;100.00
8069;BME280;4077;43.702;24.896;2024-01-11T06:49:21;51572.19;;;-145.38;100.00
8069;BME280;4077;43.702;24.896;2024-01-11T06:51:47;51603.44;;;-145.38;100.00
8069;BME280;4077;43.702;24.896;2024-01-11T06:54:12;51603.44;;;-145.38;100.00
8069;BME280;4077;43.702;24.896;2024-01-11T06:56:38;51572.19;;;-145.38;100.00
8069;BME280;4077;43.702;24.896;2024-01-11T06:59:03;51564.38;;;-145.38;100.00
8069;BME280;4077;43.702;24.896;2024-01-11T07:01:28;51597.56;;;-145.38;100.00
8069;BME280;4077;43.702;24.896;2024-01-11T07:03:54;51583.91;;;-145.38;100.00
8069;BME280;4077;43.702;24.896;2024-01-11T07:06:19;51560.47;;;-145.38;100.00
8069;BME280;4077;43.702;24.896;2024-01-11T07:08:45;51636.63;;;-145.38;100.00
8069;BME280;4077;43.702;24.896;2024-01-11T07:11:10;51548.78;;;-145.38;100.00
8069;BME280;4077;43.702;24.896;2024-01-11T07:13:36;51574.16;;;-145.38;100.00
8069;BME280;4077;43.702;24.896;2024-01-11T07:16:02;51595.63;;;-145.38;100.00
8069;BME280;4077;43.702;24.896;2024-01-11T07:18:28;51599.53;;;-145.38;100.00
8069;BME280;4077;43.702;24.896;2024-01-11T07:20:56;51599.53;;;-145.38;100.00
8069;BME280;4077;43.702;24.896;2024-01-11T07:23:22;51589.75;;;-145.38;100.00
8069;BME280;4077;43.702;24.896;2024-01-11T07:25:47;51624.91;;;-145.38;100.00
8069;BME280;4077;43.702;24.896;2024-01-11T07:28:13;51576.09;;;-145.38;100.00
8069;BME280;4077;43.702;24.896;2024-01-11T07:30:38;51583.91;;;-145.38;100.00
8069;BME280;4077;43.702;24.896;2024-01-11T07:33:05;51560.47;;;-145.38;100.00
8069;BME280;4077;43.702;24.896;2024-01-11T07:35:30;51568.28;;;-145.38;100.00
8069;BME280;4077;43.702;24.896;2024-01-11T07:37:56;51572.19;;;-145.38;100.00
8069;BME280;4077;43.702;24.896;2024-01-11T07:40:22;51572.19;;;-145.38;100.00
8069;BME280;4077;43.702;24.896;2024-01-11T07:42:47;51570.25;;;-145.38;100.00
8069;BME280;4077;43.702;24.896;2024-01-11T07:45:13;51585.84;;;-145.38;100.00
8069;BME280;4077;43.702;24.896;2024-01-11T07:47:39;51587.81;;;-145.38;94.56
8069;BME280;4077;43.702;24.896;2024-01-11T07:50:06;51531.19;;;-145.38;85.08
8069;BME280;4077;43.702;24.896;2024-01-11T07:52:40;51509.72;;;-145.38;84.30
8069;BME280;4077;43.702;24.896;2024-01-11T07:55:09;51556.56;;;-145.38;83.47
8069;BME280;4077;43.702;24.896;2024-01-11T07:57:39;51544.88;;;-145.38;80.48
8069;BME280;4077;43.702;24.896;2024-01-11T08:00:06;51552.66;;;-145.38;78.02
8069;BME280;4077;43.702;24.896;2024-01-11T08:02:34;51507.78;;;-145.38;78.32
8069;BME280;4077;43.702;24.896;2024-01-11T08:05:00;51544.88;;;-145.38;82.79
8069;BME280;4077;43.702;24.896;2024-01-11T08:07:29;51544.88;;;-145.38;80.68
8069;BME280;4077;43.702;24.896;2024-01-11T08:09:55;51535.09;;;-145.38;78.02
8069;BME280;4077;43.702;24.896;2024-01-11T08:12:20;51521.44;;;-145.38;79.61
8069;BME280;4077;43.702;24.896;2024-01-11T08:14:46;51505.81;;;-145.38;77.81
8069;BME280;4077;43.702;24.896;2024-01-11T08:17:15;51527.28;;;-145.38;69.59
8069;BME280;4077;43.702;24.896;2024-01-11T08:19:40;51548.78;;;-145.38;64.43
8069;BME280;4077;43.702;24.896;2024-01-11T08:22:10;51533.16;;;-145.38;61.27
8069;BME280;4077;43.702;24.896;2024-01-11T08:24:36;51576.09;;;-145.38;60.31
8069;BME280;4077;43.702;24.896;2024-01-11T08:27:02;51492.16;;;-145.38;59.34
8069;BME280;4077;43.702;24.896;2024-01-11T08:29:27;51517.53;;;-145.38;58.23
8069;BME280;4077;43.702;24.896;2024-01-11T08:31:53;51496.06;;;-145.38;55.13
8069;BME280;4077;43.702;24.896;2024-01-11T08:34:20;51544.88;;;-145.38;52.58
8069;BME280;4077;43.702;24.896;2024-01-11T08:36:46;51466.78;;;-145.38;49.63
8069;BME280;4077;43.702;24.896;2024-01-11T08:39:12;51462.88;;;-145.38;47.39
8069;BME280;4077;43.702;24.896;2024-01-11T08:41:38;51488.25;;;-145.38;45.06
8069;BME280;4077;43.702;24.896;2024-01-11T08:44:04;51501.91;;;-145.38;45.58
8069;BME280;4077;43.702;24.896;2024-01-11T08:46:33;51470.69;;;-145.38;46.93
8069;BME280;4077;43.702;24.896;2024-01-11T08:49:02;51556.56;;;-145.38;47.73
8069;BME280;4077;43.702;24.896;2024-01-11T08:51:29;51470.69;;;-145.38;47.52
8069;BME280;4077;43.702;24.896;2024-01-11T08:53:54;51458.97;;;-145.38;47.89
8069;BME280;4077;43.702;24.896;2024-01-11T08:56:20;51564.38;;;-145.38;47.33
8069;BME280;4077;43.702;24.896;2024-01-11T08:58:46;51480.44;;;-145.38;46.88
8069;BME280;4077;43.702;24.896;2024-01-11T09:01:12;51482.38;;;-145.38;46.08
8069;BME280;4077;43.702;24.896;2024-01-11T09:03:37;51470.69;;;-145.38;45.60
8069;BME280;4077;43.702;24.896;2024-01-11T09:06:03;51486.28;;;-145.38;44.99
8069;BME280;4077;43.702;24.896;2024-01-11T09:08:29;51478.50;;;-145.38;45.10
8069;BME280;4077;43.702;24.896;2024-01-11T09:10:59;51531.19;;;-145.38;44.13
8069;BME280;4077;43.702;24.896;2024-01-11T09:13:25;51455.06;;;-145.38;42.83
8069;BME280;4077;43.702;24.896;2024-01-11T09:15:53;51466.78;;;-145.38;42.05
8069;BME280;4077;43.702;24.896;2024-01-11T09:18:19;51484.34;;;-145.38;41.47
8069;BME280;4077;43.702;24.896;2024-01-11T09:20:45;51404.31;;;-145.38;40.15
8069;BME280;4077;43.702;24.896;2024-01-11T09:23:11;51447.25;;;-145.38;40.29
8069;BME280;4077;43.702;24.896;2024-01-11T09:25:37;51447.25;;;-145.38;40.20
8069;BME280;4077;43.702;24.896;2024-01-11T09:28:02;51443.34;;;-145.38;41.36
8069;BME280;4077;43.702;24.896;2024-01-11T09:30:28;51460.91;;;-145.38;39.71
8069;BME280;4077;43.702;24.896;2024-01-11T09:32:54;51499.97;;;-145.38;40.89
8069;BME280;4077;43.702;24.896;2024-01-11T09:35:21;51455.06;;;-145.38;42.23
8069;BME280;4077;43.702;24.896;2024-01-11T09:37:47;51443.34;;;-145.38;44.33
8069;BME280;4077;43.702;24.896;2024-01-11T09:40:12;51511.69;;;-145.38;45.52
8069;BME280;4077;43.702;24.896;2024-01-11T09:42:38;51509.72;;;-145.38;49.26
8069;BME280;4077;43.702;24.896;2024-01-11T09:45:16;51562.44;;;-145.38;53.23
8069;BME280;4077;43.702;24.896;2024-01-11T09:47:43;51513.63;;;-145.38;63.31
8069;BME280;4077;43.702;24.896;2024-01-11T09:50:10;51548.78;;;-145.38;74.03
8069;BME280;4077;43.702;24.896;2024-01-11T09:52:41;51546.81;;;-145.38;77.23
8069;BME280;4077;43.702;24.896;2024-01-11T09:55:09;51548.78;;;-145.38;80.60
8069;BME280;4077;43.702;24.896;2024-01-11T09:57:36;51529.25;;;-145.38;79.73
8069;BME280;4077;43.702;24.896;2024-01-11T10:00:06;51517.53;;;-145.38;80.96
8069;BME280;4077;43.702;24.896;2024-01-11T10:02:33;51531.19;;;-145.38;83.78
8069;BME280;4077;43.702;24.896;2024-01-11T10:04:59;51572.19;;;-145.38;81.34
8069;BME280;4077;43.702;24.896;2024-01-11T10:07:24;51523.38;;;-145.38;82.03
8069;BME280;4077;43.702;24.896;2024-01-11T10:09:50;51523.38;;;-145.38;78.69
8069;BME280;4077;43.702;24.896;2024-01-11T10:12:20;51535.09;;;-145.38;80.31
8069;BME280;4077;43.702;24.896;2024-01-11T10:14:48;51552.66;;;-145.38;78.91
8069;BME280;4077;43.702;24.896;2024-01-11T10:17:14;51513.63;;;-145.38;76.53
8069;BME280;4077;43.702;24.896;2024-01-11T10:19:39;51531.19;;;-145.38;79.70
8069;BME280;4077;43.702;24.896;2024-01-11T10:22:05;51498.00;;;-145.38;75.57
8069;BME280;4077;43.702;24.896;2024-01-11T10:24:31;51505.81;;;-145.38;76.79
8069;BME280;4077;43.702;24.896;2024-01-11T10:26:56;51517.53;;;-145.38;75.39
8069;BME280;4077;43.702;24.896;2024-01-11T10:29:22;51507.78;;;-145.38;75.96
8069;BME280;4077;43.702;24.896;2024-01-11T10:31:49;51488.25;;;-145.38;79.79
8069;BME280;4077;43.702;24.896;2024-01-11T10:34:15;51494.09;;;-145.38;76.58
8069;BME280;4077;43.702;24.896;2024-01-11T10:36:41;51558.53;;;-145.38;77.71
8069;BME280;4077;43.702;24.896;2024-01-11T10:39:07;51480.44;;;-145.38;77.18
8069;BME280;4077;43.702;24.896;2024-01-11T10:41:40;51486.28;;;-145.38;72.26
8069;BME280;4077;43.702;24.896;2024-01-11T10:44:18;51552.66;;;-145.38;73.75
8069;BME280;4077;43.702;24.896;2024-01-11T10:46:45;51486.28;;;-145.38;76.48
8069;BME280;4077;43.702;24.896;2024-01-11T10:49:11;51533.16;;;-145.38;76.25
8069;BME280;4077;43.702;24.896;2024-01-11T10:52:02;51533.16;;;-145.38;75.12
8069;BME280;4077;43.702;24.896;2024-01-11T10:54:29;51548.78;;;-145.38;71.95
8069;BME280;4077;43.702;24.896;2024-01-11T10:56:56;51560.47;;;-145.38;72.77
8069;BME280;4077;43.702;24.896;2024-01-11T10:59:26;51529.25;;;-145.38;68.75
8069;BME280;4077;43.702;24.896;2024-01-11T11:01:53;51542.91;;;-145.38;65.12
8069;BME280;4077;43.702;24.896;2024-01-11T11:04:21;51537.06;;;-145.38;63.88
8069;BME280;4077;43.702;24.896;2024-01-11T11:06:52;51542.91;;;-145.38;62.43
8069;BME280;4077;43.702;24.896;2024-01-11T11:09:20;51548.78;;;-145.38;62.04
8069;BME280;4077;43.702;24.896;2024-01-11T11:11:46;51544.88;;;-145.38;63.03
8069;BME280;4077;43.702;24.896;2024-01-11T11:14:15;51550.72;;;-145.38;63.54
8069;BME280;4077;43.702;24.896;2024-01-11T11:16:41;51517.53;;;-145.38;67.38
8069;BME280;4077;43.702;24.896;2024-01-11T11:19:08;51529.25;;;-145.38;66.71
8069;BME280;4077;43.702;24.896;2024-01-11T11:21:44;51499.97;;;-145.38;70.63
8069;BME280;4077;43.702;24.896;2024-01-11T11:24:13;51496.06;;;-145.38;69.23
8069;BME280;4077;43.702;24.896;2024-01-11T11:26:39;51537.06;;;-145.38;70.85
8069;BME280;4077;43.702;24.896;2024-01-11T11:29:04;51540.97;;;-145.38;68.90
8069;BME280;4077;43.702;24.896;2024-01-11T11:31:38;51531.19;;;-145.38;73.24
8069;BME280;4077;43.702;24.896;2024-01-11T11:34:04;51529.25;;;-145.38;73.89
8069;BME280;4077;43.702;24.896;2024-01-11T11:36:33;51535.09;;;-145.38;74.66
8069;BME280;4077;43.702;24.896;2024-01-11T11:39:00;51603.44;;;-145.38;72.82
8069;BME280;4077;43.702;24.896;2024-01-11T11:41:27;51558.53;;;-145.38;72.41
8069;BME280;4077;43.702;24.896;2024-01-11T11:43:52;51525.34;;;-145.38;71.29
8069;BME280;4077;43.702;24.896;2024-01-11T11:46:18;51521.44;;;-145.38;71.55
8069;BME280;4077;43.702;24.896;2024-01-11T11:48:51;51509.72;;;-145.38;72.26
8069;BME280;4077;43.702;24.896;2024-01-11T11:51:21;51552.66;;;-145.38;74.60
8069;BME280;4077;43.702;24.896;2024-01-11T11:53:48;51517.53;;;-145.38;76.67
8069;BME280;4077;43.702;24.896;2024-01-11T11:56:14;51533.16;;;-145.38;77.55
8069;BME280;4077;43.702;24.896;2024-01-11T11:58:44;51556.56;;;-145.38;74.61
8069;BME280;4077;43.702;24.896;2024-01-11T12:01:09;51540.97;;;-145.38;75.42
8069;BME280;4077;43.702;24.896;2024-01-11T12:03:38;51505.81;;;-145.38;76.54
8069;BME280;4077;43.702;24.896;2024-01-11T12:06:05;51599.53;;;-145.38;79.45
8069;BME280;4077;43.702;24.896;2024-01-11T12:08:31;51576.09;;;-145.38;77.78
8069;BME280;4077;43.702;24.896;2024-01-11T12:10:58;51505.81;;;-145.38;79.55
8069;BME280;4077;43.702;24.896;2024-01-11T12:13:26;51513.63;;;-145.38;79.94
8069;BME280;4077;43.702;24.896;2024-01-11T12:15:52;51537.06;;;-145.38;81.62
8069;BME280;4077;43.702;24.896;2024-01-11T12:18:18;51501.91;;;-145.38;82.93
8069;BME280;4077;43.702;24.896;2024-01-11T12:20:44;51580.00;;;-145.38;78.91
8069;BME280;4077;43.702;24.896;2024-01-11T12:23:09;51540.97;;;-145.38;77.82
8069;BME280;4077;43.702;24.896;2024-01-11T12:25:35;51540.97;;;-145.38;78.38
8069;BME280;4077;43.702;24.896;2024-01-11T12:28:01;51523.38;;;-145.38;78.76
8069;BME280;4077;43.702;24.896;2024-01-11T12:30:27;51556.56;;;-145.38;79.08
8069;BME280;4077;43.702;24.896;2024-01-11T12:32:56;51542.91;;;-145.38;78.44
8069;BME280;4077;43.702;24.896;2024-01-11T12:35:23;51513.63;;;-145.38;77.36
8069;BME280;4077;43.702;24.896;2024-01-11T12:38:01;51564.38;;;-145.38;77.55